CCW5 weather

Public forecast

Using degrees Celsius for public forecast. Weather courtesy of forecast.io.

Closest aviation weather report (METAR) to Thorburn Lake Seaplane Base

Closest report is Gander International Airport, 43.5 nm (80.6 km) NNW. Retrieved 2020/08/15 14:00 UTC (22 minutes ago):

CYQX 151400Z 01006G19KT 340V070 20SM FEW035 FEW260 16/07 A3024 RMK SC1CI1 SC TR SLP244

Closest aviation forecast (TAF) to Thorburn Lake Seaplane Base

Closest forecast is Gander International Airport, 43.5 nm (80.6 km) NNW. Retrieved 2020/08/15 12:38 UTC (2 hours ago):

TAF CYQX 151138Z 1512/1612 35007KT P6SM SKC BECMG 1522/1524 20007KT RMK NXT FCST BY 151800Z